sensor_id;sensor_type;location;lat;lon;timestamp;temperature;humidity
26909;DHT22;14477;51.038;4.588;2022-08-19T00:01:26;21.50;71.70
26909;DHT22;14477;51.038;4.588;2022-08-19T00:03:53;21.50;71.80
26909;DHT22;14477;51.038;4.588;2022-08-19T00:06:19;21.40;71.90
26909;DHT22;14477;51.038;4.588;2022-08-19T00:08:44;21.40;72.00
26909;DHT22;14477;51.038;4.588;2022-08-19T00:11:11;21.40;72.20
26909;DHT22;14477;51.038;4.588;2022-08-19T00:13:37;21.30;72.30
26909;DHT22;14477;51.038;4.588;2022-08-19T00:16:04;21.20;72.30
26909;DHT22;14477;51.038;4.588;2022-08-19T00:18:32;21.20;72.40
26909;DHT22;14477;51.038;4.588;2022-08-19T00:20:58;21.20;72.60
26909;DHT22;14477;51.038;4.588;2022-08-19T00:23:25;21.20;72.60
26909;DHT22;14477;51.038;4.588;2022-08-19T00:25:51;21.20;72.60
26909;DHT22;14477;51.038;4.588;2022-08-19T00:28:18;21.10;72.70
26909;DHT22;14477;51.038;4.588;2022-08-19T00:30:44;21.10;72.80
26909;DHT22;14477;51.038;4.588;2022-08-19T00:33:10;21.10;72.80
26909;DHT22;14477;51.038;4.588;2022-08-19T00:35:36;21.10;72.90
26909;DHT22;14477;51.038;4.588;2022-08-19T00:38:04;21.00;73.00
26909;DHT22;14477;51.038;4.588;2022-08-19T00:40:32;21.00;73.10
26909;DHT22;14477;51.038;4.588;2022-08-19T00:42:57;21.00;73.10
26909;DHT22;14477;51.038;4.588;2022-08-19T00:45:26;21.00;73.10
26909;DHT22;14477;51.038;4.588;2022-08-19T00:47:52;20.90;73.20
26909;DHT22;14477;51.038;4.588;2022-08-19T00:50:20;20.90;73.20
26909;DHT22;14477;51.038;4.588;2022-08-19T00:52:49;20.90;73.40
26909;DHT22;14477;51.038;4.588;2022-08-19T00:55:20;20.90;73.50
26909;DHT22;14477;51.038;4.588;2022-08-19T00:57:56;20.80;73.60
26909;DHT22;14477;51.038;4.588;2022-08-19T01:00:25;20.80;73.60
26909;DHT22;14477;51.038;4.588;2022-08-19T01:02:52;20.80;73.60
26909;DHT22;14477;51.038;4.588;2022-08-19T01:05:23;20.70;73.60
26909;DHT22;14477;51.038;4.588;2022-08-19T01:07:50;20.70;74.00
26909;DHT22;14477;51.038;4.588;2022-08-19T01:10:19;20.70;73.80
26909;DHT22;14477;51.038;4.588;2022-08-19T01:12:47;20.70;74.00
26909;DHT22;14477;51.038;4.588;2022-08-19T01:15:16;20.60;74.00
26909;DHT22;14477;51.038;4.588;2022-08-19T01:17:43;20.60;74.10
26909;DHT22;14477;51.038;4.588;2022-08-19T01:20:16;20.60;74.20
26909;DHT22;14477;51.038;4.588;2022-08-19T01:22:52;20.60;74.40
26909;DHT22;14477;51.038;4.588;2022-08-19T01:25:23;20.60;74.90
26909;DHT22;14477;51.038;4.588;2022-08-19T01:27:51;20.50;74.50
26909;DHT22;14477;51.038;4.588;2022-08-19T01:30:24;20.50;74.30
26909;DHT22;14477;51.038;4.588;2022-08-19T01:32:51;20.50;74.60
26909;DHT22;14477;51.038;4.588;2022-08-19T01:35:18;20.50;74.50
26909;DHT22;14477;51.038;4.588;2022-08-19T01:37:55;20.40;74.40
26909;DHT22;14477;51.038;4.588;2022-08-19T01:40:23;20.40;74.60
26909;DHT22;14477;51.038;4.588;2022-08-19T01:42:50;20.40;74.60
26909;DHT22;14477;51.038;4.588;2022-08-19T01:45:18;20.40;75.40
26909;DHT22;14477;51.038;4.588;2022-08-19T01:47:45;20.30;74.70
26909;DHT22;14477;51.038;4.588;2022-08-19T01:50:11;20.30;74.80
26909;DHT22;14477;51.038;4.588;2022-08-19T01:52:39;20.30;75.10
26909;DHT22;14477;51.038;4.588;2022-08-19T01:55:09;20.30;75.40
26909;DHT22;14477;51.038;4.588;2022-08-19T01:57:36;20.20;75.70
26909;DHT22;14477;51.038;4.588;2022-08-19T02:00:07;20.30;75.80
26909;DHT22;14477;51.038;4.588;2022-08-19T02:02:33;20.30;76.10
26909;DHT22;14477;51.038;4.588;2022-08-19T02:04:59;20.30;75.90
26909;DHT22;14477;51.038;4.588;2022-08-19T02:07:25;20.30;76.10
26909;DHT22;14477;51.038;4.588;2022-08-19T02:09:51;20.30;76.20
26909;DHT22;14477;51.038;4.588;2022-08-19T02:12:16;20.30;76.30
26909;DHT22;14477;51.038;4.588;2022-08-19T02:14:43;20.30;76.40
26909;DHT22;14477;51.038;4.588;2022-08-19T02:17:08;20.30;76.40
26909;DHT22;14477;51.038;4.588;2022-08-19T02:19:34;20.30;76.50
26909;DHT22;14477;51.038;4.588;2022-08-19T02:22:00;20.40;76.60
26909;DHT22;14477;51.038;4.588;2022-08-19T02:24:27;20.30;76.40
26909;DHT22;14477;51.038;4.588;2022-08-19T02:26:53;20.40;76.60
26909;DHT22;14477;51.038;4.588;2022-08-19T02:29:19;20.40;76.60
26909;DHT22;14477;51.038;4.588;2022-08-19T02:31:45;20.30;76.60
26909;DHT22;14477;51.038;4.588;2022-08-19T02:34:11;20.40;76.70
26909;DHT22;14477;51.038;4.588;2022-08-19T02:36:37;20.40;76.80
26909;DHT22;14477;51.038;4.588;2022-08-19T02:39:03;20.30;76.80
26909;DHT22;14477;51.038;4.588;2022-08-19T02:41:31;20.30;76.90
26909;DHT22;14477;51.038;4.588;2022-08-19T02:43:59;20.30;76.90
26909;DHT22;14477;51.038;4.588;2022-08-19T02:46:28;20.30;77.00
26909;DHT22;14477;51.038;4.588;2022-08-19T02:48:57;20.30;77.10
26909;DHT22;14477;51.038;4.588;2022-08-19T02:51:33;20.30;77.30
26909;DHT22;14477;51.038;4.588;2022-08-19T02:53:59;20.30;77.60
26909;DHT22;14477;51.038;4.588;2022-08-19T02:56:26;20.30;77.40
26909;DHT22;14477;51.038;4.588;2022-08-19T02:58:54;20.30;77.50
26909;DHT22;14477;51.038;4.588;2022-08-19T03:01:26;20.30;77.60
26909;DHT22;14477;51.038;4.588;2022-08-19T03:03:53;20.20;77.70
26909;DHT22;14477;51.038;4.588;2022-08-19T03:06:19;20.30;77.70
26909;DHT22;14477;51.038;4.588;2022-08-19T03:08:46;20.20;77.60
26909;DHT22;14477;51.038;4.588;2022-08-19T03:11:25;20.20;77.70
26909;DHT22;14477;51.038;4.588;2022-08-19T03:13:51;20.20;78.40
26909;DHT22;14477;51.038;4.588;2022-08-19T03:16:23;20.20;77.70
26909;DHT22;14477;51.038;4.588;2022-08-19T03:18:49;20.20;78.60
26909;DHT22;14477;51.038;4.588;2022-08-19T03:21:24;20.20;77.70
26909;DHT22;14477;51.038;4.588;2022-08-19T03:23:54;20.10;78.20
26909;DHT22;14477;51.038;4.588;2022-08-19T03:26:20;20.10;78.00
26909;DHT22;14477;51.038;4.588;2022-08-19T03:28:46;20.20;77.80
26909;DHT22;14477;51.038;4.588;2022-08-19T03:31:20;20.10;77.90
26909;DHT22;14477;51.038;4.588;2022-08-19T03:33:48;20.10;77.90
26909;DHT22;14477;51.038;4.588;2022-08-19T03:36:20;20.10;77.90
26909;DHT22;14477;51.038;4.588;2022-08-19T03:38:54;20.10;78.20
26909;DHT22;14477;51.038;4.588;2022-08-19T03:41:26;20.10;78.10
26909;DHT22;14477;51.038;4.588;2022-08-19T03:43:52;20.00;78.00
26909;DHT22;14477;51.038;4.588;2022-08-19T03:46:21;20.00;77.90
26909;DHT22;14477;51.038;4.588;2022-08-19T03:48:48;20.00;78.10
26909;DHT22;14477;51.038;4.588;2022-08-19T03:51:34;20.00;78.10
26909;DHT22;14477;51.038;4.588;2022-08-19T03:54:03;19.90;78.80
26909;DHT22;14477;51.038;4.588;2022-08-19T03:56:29;19.90;78.10
26909;DHT22;14477;51.038;4.588;2022-08-19T03:58:57;19.90;78.10
26909;DHT22;14477;51.038;4.588;2022-08-19T04:01:25;19.80;78.20
26909;DHT22;14477;51.038;4.588;2022-08-19T04:03:55;19.80;78.30
26909;DHT22;14477;51.038;4.588;2022-08-19T04:06:30;19.80;78.40
26909;DHT22;14477;51.038;4.588;2022-08-19T04:08:59;19.80;78.80
26909;DHT22;14477;51.038;4.588;2022-08-19T04:11:28;19.70;78.50
26909;DHT22;14477;51.038;4.588;2022-08-19T04:13:54;19.70;78.60
26909;DHT22;14477;51.038;4.588;2022-08-19T04:16:23;19.70;78.60
26909;DHT22;14477;51.038;4.588;2022-08-19T04:18:50;19.70;78.80
26909;DHT22;14477;51.038;4.588;2022-08-19T04:21:24;19.60;78.70
26909;DHT22;14477;51.038;4.588;2022-08-19T04:23:50;19.60;79.10
26909;DHT22;14477;51.038;4.588;2022-08-19T04:26:19;19.60;78.90
26909;DHT22;14477;51.038;4.588;2022-08-19T04:28:46;19.60;79.10
26909;DHT22;14477;51.038;4.588;2022-08-19T04:31:17;19.50;79.00
26909;DHT22;14477;51.038;4.588;2022-08-19T04:33:43;19.50;79.40
26909;DHT22;14477;51.038;4.588;2022-08-19T04:36:26;19.50;79.10
26909;DHT22;14477;51.038;4.588;2022-08-19T04:38:57;19.50;79.80
26909;DHT22;14477;51.038;4.588;2022-08-19T04:41:24;19.50;79.60
26909;DHT22;14477;51.038;4.588;2022-08-19T04:44:09;19.50;79.40
26909;DHT22;14477;51.038;4.588;2022-08-19T04:46:34;19.50;79.50
26909;DHT22;14477;51.038;4.588;2022-08-19T04:49:03;19.40;79.50
26909;DHT22;14477;51.038;4.588;2022-08-19T04:51:31;19.50;79.60
26909;DHT22;14477;51.038;4.588;2022-08-19T04:53:58;19.50;79.60
26909;DHT22;14477;51.038;4.588;2022-08-19T04:56:26;19.40;79.60
26909;DHT22;14477;51.038;4.588;2022-08-19T04:58:53;19.40;79.70
26909;DHT22;14477;51.038;4.588;2022-08-19T05:01:21;19.40;79.80
26909;DHT22;14477;51.038;4.588;2022-08-19T05:03:47;19.40;80.00
26909;DHT22;14477;51.038;4.588;2022-08-19T05:06:15;19.40;79.90
26909;DHT22;14477;51.038;4.588;2022-08-19T05:08:43;19.40;80.00
26909;DHT22;14477;51.038;4.588;2022-08-19T05:11:15;19.40;80.00
26909;DHT22;14477;51.038;4.588;2022-08-19T05:13:43;19.40;80.40
26909;DHT22;14477;51.038;4.588;2022-08-19T05:16:10;19.40;80.20
26909;DHT22;14477;51.038;4.588;2022-08-19T05:18:36;19.40;80.20
26909;DHT22;14477;51.038;4.588;2022-08-19T05:21:21;19.40;80.30
26909;DHT22;14477;51.038;4.588;2022-08-19T05:24:06;19.40;80.30
26909;DHT22;14477;51.038;4.588;2022-08-19T05:26:47;19.40;80.30
26909;DHT22;14477;51.038;4.588;2022-08-19T05:29:19;19.40;81.00
26909;DHT22;14477;51.038;4.588;2022-08-19T05:31:47;19.40;80.80
26909;DHT22;14477;51.038;4.588;2022-08-19T05:34:14;19.40;80.60
26909;DHT22;14477;51.038;4.588;2022-08-19T05:36:42;19.40;80.60
26909;DHT22;14477;51.038;4.588;2022-08-19T05:39:13;19.40;80.80
26909;DHT22;14477;51.038;4.588;2022-08-19T05:41:48;19.40;81.10
26909;DHT22;14477;51.038;4.588;2022-08-19T05:44:15;19.50;81.70
26909;DHT22;14477;51.038;4.588;2022-08-19T05:46:45;19.40;81.30
26909;DHT22;14477;51.038;4.588;2022-08-19T05:49:15;19.50;81.60
26909;DHT22;14477;51.038;4.588;2022-08-19T05:51:42;19.50;81.50
26909;DHT22;14477;51.038;4.588;2022-08-19T05:54:08;19.60;81.60
26909;DHT22;14477;51.038;4.588;2022-08-19T05:56:34;19.60;81.60
26909;DHT22;14477;51.038;4.588;2022-08-19T05:59:05;19.70;81.80
26909;DHT22;14477;51.038;4.588;2022-08-19T06:01:37;19.70;81.90
26909;DHT22;14477;51.038;4.588;2022-08-19T06:04:03;19.80;82.10
26909;DHT22;14477;51.038;4.588;2022-08-19T06:06:29;19.90;82.40
26909;DHT22;14477;51.038;4.588;2022-08-19T06:08:55;19.90;82.70
26909;DHT22;14477;51.038;4.588;2022-08-19T06:13:51;20.10;83.10
26909;DHT22;14477;51.038;4.588;2022-08-19T06:16:22;20.20;83.20
26909;DHT22;14477;51.038;4.588;2022-08-19T06:18:54;20.30;83.30
26909;DHT22;14477;51.038;4.588;2022-08-19T06:21:22;20.40;83.50
26909;DHT22;14477;51.038;4.588;2022-08-19T06:23:49;20.50;83.40
26909;DHT22;14477;51.038;4.588;2022-08-19T06:26:17;20.60;83.40
26909;DHT22;14477;51.038;4.588;2022-08-19T06:28:44;20.70;83.20
26909;DHT22;14477;51.038;4.588;2022-08-19T06:31:16;20.80;83.20
26909;DHT22;14477;51.038;4.588;2022-08-19T06:33:44;20.90;83.10
26909;DHT22;14477;51.038;4.588;2022-08-19T06:36:30;21.00;83.00
26909;DHT22;14477;51.038;4.588;2022-08-19T06:39:00;21.10;83.10
26909;DHT22;14477;51.038;4.588;2022-08-19T06:41:27;21.10;83.00
26909;DHT22;14477;51.038;4.588;2022-08-19T06:43:54;21.20;83.10
26909;DHT22;14477;51.038;4.588;2022-08-19T06:46:20;21.30;83.10
26909;DHT22;14477;51.038;4.588;2022-08-19T06:48:46;21.30;83.10
26909;DHT22;14477;51.038;4.588;2022-08-19T06:51:17;21.40;82.90
26909;DHT22;14477;51.038;4.588;2022-08-19T06:53:47;21.50;82.70
26909;DHT22;14477;51.038;4.588;2022-08-19T06:56:17;21.50;82.50
26909;DHT22;14477;51.038;4.588;2022-08-19T06:58:44;21.60;82.50
26909;DHT22;14477;51.038;4.588;2022-08-19T07:01:10;21.60;82.30
26909;DHT22;14477;51.038;4.588;2022-08-19T07:03:36;21.60;82.30
26909;DHT22;14477;51.038;4.588;2022-08-19T07:06:11;21.60;82.20
26909;DHT22;14477;51.038;4.588;2022-08-19T07:08:38;21.70;82.20
26909;DHT22;14477;51.038;4.588;2022-08-19T07:11:10;21.70;82.30
26909;DHT22;14477;51.038;4.588;2022-08-19T07:13:39;21.70;82.30
26909;DHT22;14477;51.038;4.588;2022-08-19T07:16:10;21.80;82.50
26909;DHT22;14477;51.038;4.588;2022-08-19T07:18:37;21.80;82.60
26909;DHT22;14477;51.038;4.588;2022-08-19T07:21:13;21.90;83.00
26909;DHT22;14477;51.038;4.588;2022-08-19T07:23:39;21.90;83.10
26909;DHT22;14477;51.038;4.588;2022-08-19T07:26:19;22.00;83.10
26909;DHT22;14477;51.038;4.588;2022-08-19T07:28:46;22.10;83.10
26909;DHT22;14477;51.038;4.588;2022-08-19T07:31:16;22.20;82.90
26909;DHT22;14477;51.038;4.588;2022-08-19T07:33:44;22.30;82.70
26909;DHT22;14477;51.038;4.588;2022-08-19T07:36:13;22.40;83.40
26909;DHT22;14477;51.038;4.588;2022-08-19T07:38:41;22.40;82.60
26909;DHT22;14477;51.038;4.588;2022-08-19T07:41:10;22.50;83.00
26909;DHT22;14477;51.038;4.588;2022-08-19T07:43:37;22.60;83.40
26909;DHT22;14477;51.038;4.588;2022-08-19T07:46:03;22.80;83.30
26909;DHT22;14477;51.038;4.588;2022-08-19T07:48:29;22.90;83.00
26909;DHT22;14477;51.038;4.588;2022-08-19T07:50:58;22.90;82.60
26909;DHT22;14477;51.038;4.588;2022-08-19T07:53:27;23.10;82.20
26909;DHT22;14477;51.038;4.588;2022-08-19T07:55:53;23.00;81.70
26909;DHT22;14477;51.038;4.588;2022-08-19T07:58:21;23.10;81.50
26909;DHT22;14477;51.038;4.588;2022-08-19T08:00:49;23.20;81.40
26909;DHT22;14477;51.038;4.588;2022-08-19T08:03:17;23.10;81.30
26909;DHT22;14477;51.038;4.588;2022-08-19T08:05:44;23.20;81.50
26909;DHT22;14477;51.038;4.588;2022-08-19T08:08:28;23.20;81.50
26909;DHT22;14477;51.038;4.588;2022-08-19T08:11:14;23.20;81.50
26909;DHT22;14477;51.038;4.588;2022-08-19T08:13:40;23.30;81.70
26909;DHT22;14477;51.038;4.588;2022-08-19T08:16:07;23.40;81.50
26909;DHT22;14477;51.038;4.588;2022-08-19T08:18:33;23.40;81.50
26909;DHT22;14477;51.038;4.588;2022-08-19T08:20:59;23.50;81.60
26909;DHT22;14477;51.038;4.588;2022-08-19T08:23:25;23.50;81.40
26909;DHT22;14477;51.038;4.588;2022-08-19T08:25:54;23.50;81.30
26909;DHT22;14477;51.038;4.588;2022-08-19T08:28:21;23.60;82.10
26909;DHT22;14477;51.038;4.588;2022-08-19T08:30:48;23.80;83.40
26909;DHT22;14477;51.038;4.588;2022-08-19T08:33:22;24.00;83.40
26909;DHT22;14477;51.038;4.588;2022-08-19T08:35:48;24.20;82.80
26909;DHT22;14477;51.038;4.588;2022-08-19T08:38:15;24.40;82.50
26909;DHT22;14477;51.038;4.588;2022-08-19T08:40:57;24.50;81.40
26909;DHT22;14477;51.038;4.588;2022-08-19T08:43:39;24.60;79.70
26909;DHT22;14477;51.038;4.588;2022-08-19T08:46:13;24.60;79.00
26909;DHT22;14477;51.038;4.588;2022-08-19T08:51:23;24.60;79.20
26909;DHT22;14477;51.038;4.588;2022-08-19T08:53:52;24.60;78.80
26909;DHT22;14477;51.038;4.588;2022-08-19T08:56:19;24.50;78.70
26909;DHT22;14477;51.038;4.588;2022-08-19T08:58:54;24.50;78.80
26909;DHT22;14477;51.038;4.588;2022-08-19T09:01:21;24.50;78.50
26909;DHT22;14477;51.038;4.588;2022-08-19T09:03:47;24.50;78.90
26909;DHT22;14477;51.038;4.588;2022-08-19T09:06:32;24.40;79.20
26909;DHT22;14477;51.038;4.588;2022-08-19T09:09:18;24.40;78.40
26909;DHT22;14477;51.038;4.588;2022-08-19T09:16:58;24.40;79.00
26909;DHT22;14477;51.038;4.588;2022-08-19T09:19:25;24.50;79.10
26909;DHT22;14477;51.038;4.588;2022-08-19T09:21:51;24.50;79.20
26909;DHT22;14477;51.038;4.588;2022-08-19T09:24:17;24.50;79.20
26909;DHT22;14477;51.038;4.588;2022-08-19T09:26:43;24.50;79.10
26909;DHT22;14477;51.038;4.588;2022-08-19T09:29:09;24.60;79.00
26909;DHT22;14477;51.038;4.588;2022-08-19T09:31:36;24.60;79.00
26909;DHT22;14477;51.038;4.588;2022-08-19T09:34:02;24.60;79.00
26909;DHT22;14477;51.038;4.588;2022-08-19T09:36:30;24.70;78.90
26909;DHT22;14477;51.038;4.588;2022-08-19T09:38:59;24.70;78.60
26909;DHT22;14477;51.038;4.588;2022-08-19T09:41:26;24.70;78.60
26909;DHT22;14477;51.038;4.588;2022-08-19T09:43:53;24.70;78.70
26909;DHT22;14477;51.038;4.588;2022-08-19T09:46:22;24.70;78.60
26909;DHT22;14477;51.038;4.588;2022-08-19T09:48:50;24.80;78.90
26909;DHT22;14477;51.038;4.588;2022-08-19T09:51:19;24.80;78.70
26909;DHT22;14477;51.038;4.588;2022-08-19T09:53:47;24.90;79.00
26909;DHT22;14477;51.038;4.588;2022-08-19T09:56:17;25.00;79.00
26909;DHT22;14477;51.038;4.588;2022-08-19T09:58:43;25.00;78.80
26909;DHT22;14477;51.038;4.588;2022-08-19T10:01:11;25.00;78.60
26909;DHT22;14477;51.038;4.588;2022-08-19T10:03:40;25.10;78.20
26909;DHT22;14477;51.038;4.588;2022-08-19T10:06:06;25.10;78.10
26909;DHT22;14477;51.038;4.588;2022-08-19T10:08:34;25.10;77.90
26909;DHT22;14477;51.038;4.588;2022-08-19T10:11:01;25.10;77.80
26909;DHT22;14477;51.038;4.588;2022-08-19T10:13:29;25.20;78.10
26909;DHT22;14477;51.038;4.588;2022-08-19T10:16:03;25.20;78.40
26909;DHT22;14477;51.038;4.588;2022-08-19T10:18:29;25.30;78.80
26909;DHT22;14477;51.038;4.588;2022-08-19T10:21:05;25.40;79.20
26909;DHT22;14477;51.038;4.588;2022-08-19T10:23:35;25.60;78.30
26909;DHT22;14477;51.038;4.588;2022-08-19T10:26:04;25.60;78.40
26909;DHT22;14477;51.038;4.588;2022-08-19T10:28:35;25.70;78.50
26909;DHT22;14477;51.038;4.588;2022-08-19T10:31:18;25.80;78.40
26909;DHT22;14477;51.038;4.588;2022-08-19T10:33:45;25.90;77.10
26909;DHT22;14477;51.038;4.588;2022-08-19T10:36:15;26.00;78.20
26909;DHT22;14477;51.038;4.588;2022-08-19T10:38:44;26.10;78.00
26909;DHT22;14477;51.038;4.588;2022-08-19T10:41:19;26.20;78.00
26909;DHT22;14477;51.038;4.588;2022-08-19T10:43:45;26.30;77.20
26909;DHT22;14477;51.038;4.588;2022-08-19T10:46:13;26.40;78.10
26909;DHT22;14477;51.038;4.588;2022-08-19T10:48:40;26.50;78.00
26909;DHT22;14477;51.038;4.588;2022-08-19T10:51:07;26.70;78.10
26909;DHT22;14477;51.038;4.588;2022-08-19T10:53:51;26.80;78.40
26909;DHT22;14477;51.038;4.588;2022-08-19T10:56:18;27.00;77.80
26909;DHT22;14477;51.038;4.588;2022-08-19T10:59:03;27.10;76.70
26909;DHT22;14477;51.038;4.588;2022-08-19T11:01:31;27.10;76.20
26909;DHT22;14477;51.038;4.588;2022-08-19T11:04:03;27.10;76.00
26909;DHT22;14477;51.038;4.588;2022-08-19T11:06:28;27.20;75.80
26909;DHT22;14477;51.038;4.588;2022-08-19T11:08:55;27.30;75.70
26909;DHT22;14477;51.038;4.588;2022-08-19T11:11:22;27.20;75.20
26909;DHT22;14477;51.038;4.588;2022-08-19T11:13:48;27.20;75.00
26909;DHT22;14477;51.038;4.588;2022-08-19T11:16:26;27.30;75.40
26909;DHT22;14477;51.038;4.588;2022-08-19T11:18:57;27.40;74.60
26909;DHT22;14477;51.038;4.588;2022-08-19T11:21:30;27.50;75.70
26909;DHT22;14477;51.038;4.588;2022-08-19T11:24:11;27.60;75.20
26909;DHT22;14477;51.038;4.588;2022-08-19T11:26:39;27.70;73.40
26909;DHT22;14477;51.038;4.588;2022-08-19T11:29:05;27.70;73.60
26909;DHT22;14477;51.038;4.588;2022-08-19T11:31:34;27.60;72.90
26909;DHT22;14477;51.038;4.588;2022-08-19T11:34:03;27.50;72.40
26909;DHT22;14477;51.038;4.588;2022-08-19T11:36:30;27.50;72.50
26909;DHT22;14477;51.038;4.588;2022-08-19T11:38:58;27.40;72.80
26909;DHT22;14477;51.038;4.588;2022-08-19T11:41:24;27.30;73.10
26909;DHT22;14477;51.038;4.588;2022-08-19T11:43:51;27.30;73.20
26909;DHT22;14477;51.038;4.588;2022-08-19T11:46:19;27.20;73.30
26909;DHT22;14477;51.038;4.588;2022-08-19T11:48:45;27.30;73.60
26909;DHT22;14477;51.038;4.588;2022-08-19T11:51:18;27.30;73.70
26909;DHT22;14477;51.038;4.588;2022-08-19T11:53:44;27.30;73.30
26909;DHT22;14477;51.038;4.588;2022-08-19T11:56:11;27.40;74.00
26909;DHT22;14477;51.038;4.588;2022-08-19T11:58:37;27.50;74.00
26909;DHT22;14477;51.038;4.588;2022-08-19T12:01:14;27.50;73.90
26909;DHT22;14477;51.038;4.588;2022-08-19T12:03:44;27.60;72.70
26909;DHT22;14477;51.038;4.588;2022-08-19T12:06:22;27.70;73.30
26909;DHT22;14477;51.038;4.588;2022-08-19T12:08:55;27.70;72.50
26909;DHT22;14477;51.038;4.588;2022-08-19T12:11:21;27.80;73.80
26909;DHT22;14477;51.038;4.588;2022-08-19T12:13:47;27.90;74.30
26909;DHT22;14477;51.038;4.588;2022-08-19T12:16:18;28.00;74.50
26909;DHT22;14477;51.038;4.588;2022-08-19T12:18:45;28.20;74.10
26909;DHT22;14477;51.038;4.588;2022-08-19T12:21:20;28.50;75.20
26909;DHT22;14477;51.038;4.588;2022-08-19T12:23:48;28.70;74.80
26909;DHT22;14477;51.038;4.588;2022-08-19T12:26:14;29.00;75.00
26909;DHT22;14477;51.038;4.588;2022-08-19T12:28:40;29.30;75.30
26909;DHT22;14477;51.038;4.588;2022-08-19T12:31:06;29.60;75.10
26909;DHT22;14477;51.038;4.588;2022-08-19T12:33:32;29.90;74.90
26909;DHT22;14477;51.038;4.588;2022-08-19T12:36:04;30.20;73.70
26909;DHT22;14477;51.038;4.588;2022-08-19T12:38:31;30.40;71.50
26909;DHT22;14477;51.038;4.588;2022-08-19T12:40:58;30.50;71.30
26909;DHT22;14477;51.038;4.588;2022-08-19T12:43:24;30.60;70.00
26909;DHT22;14477;51.038;4.588;2022-08-19T12:45:50;30.60;69.00
26909;DHT22;14477;51.038;4.588;2022-08-19T12:48:16;30.50;68.40
26909;DHT22;14477;51.038;4.588;2022-08-19T12:50:44;30.40;68.30
26909;DHT22;14477;51.038;4.588;2022-08-19T12:53:13;30.40;67.70
26909;DHT22;14477;51.038;4.588;2022-08-19T12:55:38;30.30;68.00
26909;DHT22;14477;51.038;4.588;2022-08-19T12:58:04;30.30;68.20
26909;DHT22;14477;51.038;4.588;2022-08-19T13:00:30;30.30;68.20
26909;DHT22;14477;51.038;4.588;2022-08-19T13:02:58;30.30;67.80
26909;DHT22;14477;51.038;4.588;2022-08-19T13:05:28;30.30;67.60
26909;DHT22;14477;51.038;4.588;2022-08-19T13:07:57;30.30;66.80
26909;DHT22;14477;51.038;4.588;2022-08-19T13:10:29;30.30;67.00
26909;DHT22;14477;51.038;4.588;2022-08-19T13:12:56;30.30;66.60
26909;DHT22;14477;51.038;4.588;2022-08-19T13:15:23;30.20;66.90
26909;DHT22;14477;51.038;4.588;2022-08-19T13:17:50;30.20;66.50
26909;DHT22;14477;51.038;4.588;2022-08-19T13:20:17;30.20;66.40
26909;DHT22;14477;51.038;4.588;2022-08-19T13:22:45;30.10;66.50
26909;DHT22;14477;51.038;4.588;2022-08-19T13:25:12;30.20;66.80
26909;DHT22;14477;51.038;4.588;2022-08-19T13:27:38;30.20;66.80
26909;DHT22;14477;51.038;4.588;2022-08-19T13:30:08;30.30;67.60
26909;DHT22;14477;51.038;4.588;2022-08-19T13:32:52;30.50;68.40
26909;DHT22;14477;51.038;4.588;2022-08-19T13:35:37;30.80;69.60
26909;DHT22;14477;51.038;4.588;2022-08-19T13:38:03;31.20;70.30
26909;DHT22;14477;51.038;4.588;2022-08-19T13:40:31;31.60;71.00
26909;DHT22;14477;51.038;4.588;2022-08-19T13:43:00;32.20;70.00
26909;DHT22;14477;51.038;4.588;2022-08-19T13:45:28;32.60;68.60
26909;DHT22;14477;51.038;4.588;2022-08-19T13:47:55;33.00;67.40
26909;DHT22;14477;51.038;4.588;2022-08-19T13:50:27;33.20;66.40
26909;DHT22;14477;51.038;4.588;2022-08-19T13:52:54;33.50;63.10
26909;DHT22;14477;51.038;4.588;2022-08-19T13:55:20;33.60;63.20
26909;DHT22;14477;51.038;4.588;2022-08-19T13:57:53;33.60;62.20
26909;DHT22;14477;51.038;4.588;2022-08-19T14:00:21;33.60;60.50
26909;DHT22;14477;51.038;4.588;2022-08-19T14:02:51;33.50;60.90
26909;DHT22;14477;51.038;4.588;2022-08-19T14:05:18;33.40;60.00
26909;DHT22;14477;51.038;4.588;2022-08-19T14:07:44;33.40;60.70
26909;DHT22;14477;51.038;4.588;2022-08-19T14:10:11;33.40;61.00
26909;DHT22;14477;51.038;4.588;2022-08-19T14:12:38;33.40;60.50
26909;DHT22;14477;51.038;4.588;2022-08-19T14:15:06;33.40;60.40
26909;DHT22;14477;51.038;4.588;2022-08-19T14:17:32;33.40;59.60
26909;DHT22;14477;51.038;4.588;2022-08-19T14:20:02;33.40;59.60
26909;DHT22;14477;51.038;4.588;2022-08-19T14:22:33;33.30;59.10
26909;DHT22;14477;51.038;4.588;2022-08-19T14:24:59;33.30;58.60
26909;DHT22;14477;51.038;4.588;2022-08-19T14:27:24;33.00;57.90
26909;DHT22;14477;51.038;4.588;2022-08-19T14:29:52;32.80;57.80
26909;DHT22;14477;51.038;4.588;2022-08-19T14:32:18;32.60;57.70
26909;DHT22;14477;51.038;4.588;2022-08-19T14:34:44;32.50;57.90
26909;DHT22;14477;51.038;4.588;2022-08-19T14:37:14;32.30;58.60
26909;DHT22;14477;51.038;4.588;2022-08-19T14:39:43;32.20;58.60
26909;DHT22;14477;51.038;4.588;2022-08-19T14:42:10;32.20;58.30
26909;DHT22;14477;51.038;4.588;2022-08-19T14:44:36;32.20;58.50
26909;DHT22;14477;51.038;4.588;2022-08-19T14:47:02;32.10;58.30
26909;DHT22;14477;51.038;4.588;2022-08-19T14:49:28;31.90;58.00
26909;DHT22;14477;51.038;4.588;2022-08-19T14:51:54;31.80;57.70
26909;DHT22;14477;51.038;4.588;2022-08-19T14:54:20;31.60;57.60
26909;DHT22;14477;51.038;4.588;2022-08-19T14:56:47;31.50;57.50
26909;DHT22;14477;51.038;4.588;2022-08-19T14:59:13;31.30;57.70
26909;DHT22;14477;51.038;4.588;2022-08-19T15:01:39;31.10;57.80
26909;DHT22;14477;51.038;4.588;2022-08-19T15:04:05;30.90;58.30
26909;DHT22;14477;51.038;4.588;2022-08-19T15:06:31;30.90;58.90
26909;DHT22;14477;51.038;4.588;2022-08-19T15:08:57;30.80;59.10
26909;DHT22;14477;51.038;4.588;2022-08-19T15:11:24;30.70;58.80
26909;DHT22;14477;51.038;4.588;2022-08-19T15:13:52;30.60;58.50
26909;DHT22;14477;51.038;4.588;2022-08-19T15:16:19;30.40;58.30
26909;DHT22;14477;51.038;4.588;2022-08-19T15:18:46;30.20;58.50
26909;DHT22;14477;51.038;4.588;2022-08-19T15:21:15;30.00;58.70
26909;DHT22;14477;51.038;4.588;2022-08-19T15:23:48;29.90;59.00
26909;DHT22;14477;51.038;4.588;2022-08-19T15:26:15;29.80;59.30
26909;DHT22;14477;51.038;4.588;2022-08-19T15:28:42;29.70;59.80
26909;DHT22;14477;51.038;4.588;2022-08-19T15:31:09;29.60;59.90
26909;DHT22;14477;51.038;4.588;2022-08-19T15:33:36;29.50;60.10
26909;DHT22;14477;51.038;4.588;2022-08-19T15:36:04;29.40;60.30
26909;DHT22;14477;51.038;4.588;2022-08-19T15:38:32;29.40;60.40
26909;DHT22;14477;51.038;4.588;2022-08-19T15:41:02;29.40;60.50
26909;DHT22;14477;51.038;4.588;2022-08-19T15:44:00;29.30;60.60
26909;DHT22;14477;51.038;4.588;2022-08-19T15:46:30;29.30;60.40
26909;DHT22;14477;51.038;4.588;2022-08-19T15:48:57;29.40;60.90
26909;DHT22;14477;51.038;4.588;2022-08-19T15:51:24;29.30;60.90